Impacts METAR Board
IDs:

KLAX - Los Angeles Intl, CA, US

Updated at: 1800 UTC 22 Sep 2018
Potential Impact None Slight Moderate High
Time 22/06Z 22/07Z 22/08Z 22/09Z 22/10Z 22/11Z 22/12Z 22/13Z 22/14Z 22/15Z 22/16Z 22/17Z 22/18Z
Temp67 67 67 66 65 65 65 65 65 66 68 70 71
Dewpt62 63 63 62 61 62 62 61 61 62 62 62 62
Altim29.98 29.98 29.97 29.97 29.96 29.96 29.95 29.96 29.96 29.96 29.97 29.97 29.97
VIS10 10 10 10 9 9 8 9 7 8 6 9 9
CIG-- 9 9 9 9 8 9 8 -- -- -- -- --
CoverFEWBKNBKNBKNBKNBKNOVCBKNSCTSCTFEWFEWSCT
FltCatVFRIFRIFRIFRIFRIFRIFRIFRVFRVFRVFRVFRVFR
WX--------------------HZ----
WDir250240270270270270250240210270270240260
WSpd6 6 7 6 6 4 6 6 3 3 4 5 9
WGst-- -- -- -- -- -- -- -- -- -- -- -- --
Raw hourly METARs
KLAX 220553Z 25006KT 10SM FEW009 19/17 A2998 RMK AO2 SLP148 T01940167 10217 20194 51013
KLAX 220653Z 24006KT 10SM BKN009 19/17 A2998 RMK AO2 SLP148 T01940172
KLAX 220753Z 27007KT 10SM BKN009 19/17 A2997 RMK AO2 SLP146 T01940172 402330183
KLAX 220853Z 27006KT 10SM BKN009 19/17 A2997 RMK AO2 SLP146 T01890167 57003
KLAX 220953Z 27006KT 9SM BKN009 18/16 A2996 RMK AO2 SLP143 T01830161
KLAX 221053Z 27004KT 9SM BKN008 18/17 A2996 RMK AO2 SLP142 T01830167
KLAX 221153Z 25006KT 8SM OVC009 18/17 A2995 RMK AO2 SLP141 T01830167 10194 20183 56005
KLAX 221253Z 24006KT 9SM BKN008 18/16 A2996 RMK AO2 SLP143 T01830161
KLAX 221353Z 21003KT 7SM SCT009 18/16 A2996 RMK AO2 SLP143 T01830161
KLAX 221453Z 27003KT 8SM SCT010 19/17 A2996 RMK AO2 SLP144 T01890167 51003
KLAX 221553Z 27004KT 6SM HZ FEW010 20/17 A2997 RMK AO2 SLP147 T02000167
KLAX 221653Z 24005KT 9SM FEW010 21/17 A2997 RMK AO2 SLP147 T02110167
KLAX 221753Z 26009KT 9SM FEW010 SCT100 22/17 A2997 RMK AO2 SLP147 T02170167 10217 20178 51004



Page loaded:  18:33 UTC  |   11:33 AM Pacific  |   12:33 PM Mountain  |   01:33 PM Central  |   02:33 PM Eastern

 

ADVISORIES

FORECASTS

FORECASTS

OBSERVATIONS

USER TOOLS

ABOUT US